»·PEaware :: N6233G KSBP-KOXR

N6233G :: KSBP-KOXR

FLIGHT INFORMATION

Flight Status: Arrived
Operator: Privately registered:
United States
More flights under this callsign
Pilot: Mark B. (9455)
Aircraft: BEECH AIRCRAFT DEBONAIR BONANZA
(BE33)
More flights by this aircraft type
Origin: KSBP San Luis Co Regl
United States
Destination: KOXR Oxnard
United States
More flights between these airports :: More routes between these airports
Route: RZS VTU
File this flight plan on PilotEdge
Remarks: TEC route SBAP70
Altitude:
(Current/Filed)
7,000ft
Speed:
(Current/Filed)
160kts
Departed: 12-May-20 05:23 PM
Arrived: 12-May-20 06:30 PM
Distance/Time
Traveled:
94nm/1:07
Distance/Time
To Go:
Arrived

Flight Plot

Page will automatically refresh every two minutes.


Map Options




Map Legend


Flown Route
Filed Route
Departure Airport
Arrival Airport
Navaid (VOR, NDB)
Fix

Horizontal Profiles

Position Reports

Time Latitude Longitude Heading Altitude Ground
Speed
12-May-20 17:08 35.238486 -120.640028 304 191ft 0kts
12-May-20 17:09 35.238486 -120.640028 304 191ft 0kts
12-May-20 17:10 35.238486 -120.640028 304 191ft 0kts
12-May-20 17:11 35.238486 -120.640028 304 191ft 0kts
12-May-20 17:12 35.238486 -120.640028 304 191ft 0kts
12-May-20 17:13 35.238486 -120.640028 304 191ft 0kts
12-May-20 17:14 35.238486 -120.640028 304 191ft 0kts
12-May-20 17:15 35.238486 -120.640028 304 191ft 0kts
12-May-20 17:16 35.238081 -120.640485 142 190ft 5kts
12-May-20 17:17 35.236265 -120.637223 124 202ft 16kts
12-May-20 17:18 35.233517 -120.632440 149 213ft 11kts
12-May-20 17:19 35.233068 -120.632519 221 211ft 0kts
12-May-20 17:20 35.233068 -120.632519 221 211ft 0kts
12-May-20 17:21 35.232847 -120.632928 268 210ft 12kts
12-May-20 17:22 35.242262 -120.650756 301 697ft 98kts
12-May-20 17:23 35.257325 -120.679225 304 2049ft 103kts
12-May-20 17:24 35.273038 -120.708984 302 3321ft 105kts
12-May-20 17:25 35.283443 -120.741685 245 4440ft 113kts
12-May-20 17:26 35.256569 -120.747831 161 5592ft 109kts
12-May-20 17:27 35.232167 -120.726156 130 6609ft 111kts
12-May-20 17:28 35.210412 -120.696432 132 6991ft 151kts
12-May-20 17:29 35.184803 -120.662742 132 7000ft 175kts
12-May-20 17:30 35.158797 -120.625230 130 6985ft 181kts
12-May-20 17:31 35.130348 -120.586611 133 6977ft 183kts
12-May-20 17:32 35.100589 -120.545975 130 7028ft 182kts
12-May-20 17:33 35.073494 -120.504662 133 7017ft 182kts
12-May-20 17:34 35.044087 -120.470724 139 6987ft 184kts
12-May-20 17:35 35.014198 -120.435249 132 7021ft 182kts
12-May-20 17:36 34.982900 -120.390312 131 7008ft 181kts
12-May-20 17:37 34.951076 -120.347682 132 7010ft 183kts
12-May-20 17:38 34.920139 -120.305437 134 7035ft 181kts
12-May-20 17:39 34.886727 -120.265910 135 7010ft 183kts
12-May-20 17:40 34.854514 -120.225065 134 6988ft 184kts
12-May-20 17:41 34.822214 -120.183784 132 7020ft 181kts
12-May-20 17:42 34.791096 -120.143883 133 7018ft 183kts
12-May-20 17:43 34.766307 -120.108552 129 7029ft 182kts
12-May-20 17:44 34.743649 -120.075325 129 7009ft 181kts
12-May-20 17:45 34.722593 -120.045065 132 7021ft 180kts
12-May-20 17:46 34.698224 -120.015397 135 6989ft 181kts
12-May-20 17:47 34.674185 -119.981859 128 7005ft 181kts
12-May-20 17:48 34.649014 -119.950137 137 7000ft 181kts
12-May-20 17:49 34.621694 -119.920629 135 7047ft 178kts
12-May-20 17:50 34.594327 -119.885709 129 7008ft 181kts
12-May-20 17:51 34.569851 -119.850329 131 6954ft 183kts
12-May-20 17:52 34.546836 -119.818143 130 7009ft 179kts
12-May-20 17:53 34.521648 -119.785222 132 6980ft 181kts
12-May-20 17:54 34.496824 -119.748157 125 6986ft 180kts
12-May-20 17:55 34.474400 -119.709202 121 6905ft 183kts
12-May-20 17:56 34.454220 -119.668349 121 6968ft 183kts
12-May-20 17:57 34.429177 -119.623503 127 6986ft 182kts
12-May-20 17:58 34.405205 -119.577654 121 6972ft 183kts
12-May-20 17:59 34.377653 -119.532173 125 6985ft 183kts
12-May-20 18:00 34.352726 -119.484524 120 6943ft 185kts
12-May-20 18:01 34.327296 -119.437490 126 7015ft 180kts
12-May-20 18:02 34.303266 -119.394439 122 7013ft 183kts
12-May-20 18:03 34.282922 -119.354741 123 6916ft 186kts
12-May-20 18:04 34.263193 -119.316794 113 6976ft 181kts
12-May-20 18:05 34.260453 -119.280356 88 6951ft 179kts
12-May-20 18:06 34.262211 -119.246161 86 6553ft 173kts
12-May-20 18:07 34.263792 -119.211854 86 6051ft 170kts
12-May-20 18:08 34.265975 -119.178311 84 5537ft 171kts
12-May-20 18:09 34.265945 -119.147003 90 5172ft 166kts
12-May-20 18:10 34.264655 -119.107155 92 4617ft 166kts
12-May-20 18:11 34.265034 -119.054520 89 4011ft 159kts
12-May-20 18:12 34.265897 -119.015971 85 3993ft 105kts
12-May-20 18:13 34.265613 -118.991676 91 3952ft 104kts
12-May-20 18:14 34.266181 -118.959997 91 3941ft 103kts
12-May-20 18:15 34.266354 -118.925397 86 3961ft 106kts
12-May-20 18:16 34.262134 -118.890302 132 3982ft 111kts
12-May-20 18:17 34.232936 -118.882252 179 3971ft 111kts
12-May-20 18:18 34.205760 -118.899056 231 3796ft 116kts
12-May-20 18:19 34.196167 -118.934166 269 3657ft 109kts
12-May-20 18:20 34.197822 -118.972082 271 3364ft 117kts
12-May-20 18:21 34.198068 -119.011518 266 3013ft 109kts
12-May-20 18:22 34.198242 -119.041128 267 2454ft 92kts
12-May-20 18:23 34.198966 -119.059869 270 2277ft 83kts
12-May-20 18:24 34.199821 -119.089339 272 1803ft 91kts
12-May-20 18:25 34.200454 -119.120842 269 1397ft 89kts
12-May-20 18:26 34.200605 -119.147801 268 865ft 94kts
12-May-20 18:27 34.200345 -119.170759 272 624ft 84kts
12-May-20 18:28 34.200688 -119.195015 270 187ft 72kts
12-May-20 18:29 34.200019 -119.207179 175 37ft 0kts

Navigation Log

Ident Type
Flight plan parsing failed, navigation log unavailable